Calamocha, Spain
Current Conditions -  °F | °C
As of 8:00 PM on Monday 20 Oct 2014 (Local Time) from LETL Reporting Station
Clear Clear  
Wind Chill: 70°   Ceiling: Unl
Heat Index: 70°   Visibility: 6mi
Dew Point: 37°   Wind: 6mph
Humidity: 31%   Direction: 340°NNW
Pressure: 30.27"   Gusts: NA
Location:  40.92°N, 1.3°W
Report Text: LETL 201800Z AUTO 34005KT 300V360 CAVOK 21/03 Q1025
Loading
Personal Weather Stations






























Interactive Weather Map
Tropical Storm Tracking
New forecast layout! Learn more

10-Day Weather Forecast

Advertisements
Track Severe Weather on mobile